Time;durP1;ratioP1;P1;durP2;ratioP2;P2;SDS_P1;SDS_P2;PMS_P1;PMS_P2;Temp;Humidity;BMP_temperature;BMP_pressure;BME280_temperature;BME280_humidity;BME280_pressure;Samples;Min_cycle;Max_cycle;Signal;HPM_P1;HPM_P2
2023/01/21 00:01:18;;;;;;;0.20;0.20;;;-1.30;99.90;12.80;163505.00;;;;4975347;28;20581;-77
2023/01/21 00:03:46;;;;;;;0.10;0.10;;;-0.80;99.90;12.80;163505.00;;;;4955047;28;20193;-76
2023/01/21 00:06:15;;;;;;;0.10;0.10;;;-1.20;99.90;12.80;163505.00;;;;4977117;28;20736;-79
2023/01/21 00:08:43;;;;;;;0.10;0.10;;;-1.60;99.90;12.80;163505.00;;;;4974910;28;20203;-78
2023/01/21 00:11:15;;;;;;;0.10;0.10;;;-1.70;99.90;12.80;163505.00;;;;4977275;28;20292;-77
2023/01/21 00:13:44;;;;;;;0.20;0.20;;;-1.80;99.90;12.80;163505.00;;;;4975060;28;20201;-77
2023/01/21 00:16:14;;;;;;;0.20;0.20;;;-1.90;99.90;12.80;163505.00;;;;4980384;28;20224;-77
2023/01/21 00:18:42;;;;;;;0.20;0.20;;;-1.90;99.90;12.80;163505.00;;;;4973358;28;20569;-76
2023/01/21 00:21:10;;;;;;;0.10;0.10;;;-1.90;99.90;12.80;163505.00;;;;4972438;28;20221;-76
2023/01/21 00:23:38;;;;;;;0.10;0.10;;;-1.90;99.90;12.80;163505.00;;;;4972390;28;20201;-76
2023/01/21 00:26:10;;;;;;;0.20;0.20;;;-2.00;99.90;12.80;163505.00;;;;4991823;28;20212;-76
2023/01/21 00:28:40;;;;;;;0.10;0.10;;;-2.20;99.90;12.80;163505.00;;;;4991727;28;20265;-76
2023/01/21 00:31:10;;;;;;;0.20;0.20;;;-2.20;99.90;12.80;163505.00;;;;4991642;28;20279;-76
2023/01/21 00:33:41;;;;;;;0.20;0.20;;;-2.20;99.90;12.80;163505.00;;;;4991801;28;20603;-76
2023/01/21 00:36:12;;;;;;;0.20;0.20;;;-2.30;99.90;12.80;163505.00;;;;4957186;28;20224;-76
2023/01/21 00:38:40;;;;;;;0.10;0.10;;;-2.10;99.90;12.80;163505.00;;;;4989922;28;20212;-77
2023/01/21 00:41:11;;;;;;;0.10;0.10;;;-1.40;99.90;12.80;163505.00;;;;4975090;28;20723;-77
2023/01/21 00:43:40;;;;;;;0.10;0.10;;;-1.30;99.90;12.80;163505.00;;;;4974218;28;20196;-77
2023/01/21 00:46:09;;;;;;;0.13;0.13;;;-0.90;99.90;12.80;163505.00;;;;4980780;28;20275;-77
2023/01/21 00:48:37;;;;;;;0.10;0.10;;;-0.80;99.90;12.80;163505.00;;;;4995206;28;20222;-76
2023/01/21 00:51:08;;;;;;;0.10;0.10;;;-0.70;99.90;12.80;163505.00;;;;4979708;28;20224;-77
2023/01/21 00:53:40;;;;;;;0.10;0.10;;;-0.70;99.90;12.80;163505.00;;;;4978734;28;20207;-77
2023/01/21 00:56:11;;;;;;;0.20;0.20;;;-0.70;99.90;12.80;163505.00;;;;4981750;28;20639;-77
2023/01/21 00:58:42;;;;;;;0.10;0.10;;;-0.70;99.90;12.80;163505.00;;;;4991123;28;20569;-77
2023/01/21 01:01:13;;;;;;;0.10;0.10;;;-0.60;99.90;12.80;163505.00;;;;4989290;28;20252;-77
2023/01/21 01:03:43;;;;;;;0.20;0.20;;;-0.50;99.90;12.80;163505.00;;;;4996097;28;20199;-78
2023/01/21 01:06:16;;;;;;;0.13;0.13;;;-0.40;99.90;12.80;163505.00;;;;4983196;28;20229;-78
2023/01/21 01:08:45;;;;;;;0.10;0.10;;;-0.50;99.90;12.80;163505.00;;;;4975636;28;20208;-77
2023/01/21 01:11:14;;;;;;;0.10;0.10;;;-0.40;99.90;12.80;163505.00;;;;4979104;28;20205;-77
2023/01/21 01:13:42;;;;;;;0.15;0.15;;;-0.30;99.90;12.80;163505.00;;;;4983567;28;20693;-77
2023/01/21 01:16:17;;;;;;;0.10;0.10;;;-0.30;99.90;12.80;163505.00;;;;4974948;28;20715;-77
2023/01/21 01:18:45;;;;;;;0.10;0.10;;;-0.10;99.90;12.80;163505.00;;;;4975736;28;20193;-78
2023/01/21 01:21:18;;;;;;;0.10;0.10;;;-0.10;99.90;12.80;163505.00;;;;4965951;28;20189;-78
2023/01/21 01:23:47;;;;;;;0.15;0.15;;;-0.10;99.90;12.80;163505.00;;;;4958638;28;20209;-78
2023/01/21 01:26:17;;;;;;;0.10;0.10;;;-0.20;99.90;12.80;163505.00;;;;4980463;28;20602;-77
2023/01/21 01:28:45;;;;;;;0.10;0.10;;;0.10;99.90;12.80;163505.00;;;;5000985;28;20224;-78
2023/01/21 01:31:16;;;;;;;0.10;0.10;;;0.30;99.90;12.80;163505.00;;;;4975586;28;20240;-78
2023/01/21 01:33:46;;;;;;;0.10;0.10;;;0.30;99.90;12.80;163505.00;;;;4987171;28;20268;-79
2023/01/21 01:36:18;;;;;;;0.10;0.10;;;0.80;99.90;12.80;163505.00;;;;5004440;28;20212;-79
2023/01/21 01:38:47;;;;;;;0.10;0.10;;;0.90;99.90;12.80;163505.00;;;;4993673;28;20224;-79
2023/01/21 01:41:19;;;;;;;0.10;0.10;;;1.00;99.90;12.80;163505.00;;;;4993831;28;20215;-78
2023/01/21 01:43:58;;;;;;;0.10;0.10;;;0.90;99.90;12.80;163505.00;;;;4971542;28;20200;-77
2023/01/21 01:46:30;;;;;;;0.10;0.10;;;1.00;99.90;12.80;163505.00;;;;4978224;28;20600;-77
2023/01/21 01:49:09;;;;;;;0.10;0.10;;;0.90;99.90;12.80;163505.00;;;;4967952;28;20614;-77
2023/01/21 01:51:46;;;;;;;0.10;0.10;;;0.70;99.90;12.80;163505.00;;;;4978566;28;20197;-77
2023/01/21 01:54:19;;;;;;;0.10;0.10;;;0.90;99.90;12.80;163505.00;;;;4980943;28;20682;-77
2023/01/21 01:56:54;;;;;;;0.10;0.10;;;1.00;99.90;12.80;163505.00;;;;4987472;28;20344;-77
2023/01/21 01:59:22;;;;;;;0.10;0.10;;;1.10;99.90;12.80;163505.00;;;;4965002;28;20759;-77
2023/01/21 02:01:51;;;;;;;0.15;0.15;;;1.00;99.90;12.80;163505.00;;;;4983551;28;20196;-77
2023/01/21 02:04:25;;;;;;;0.10;0.10;;;0.90;99.90;12.80;163505.00;;;;4978027;28;20197;-77
2023/01/21 02:06:56;;;;;;;0.10;0.10;;;0.70;99.90;12.80;163505.00;;;;4986201;28;20239;-77
2023/01/21 02:09:28;;;;;;;0.20;0.20;;;0.60;99.90;12.80;163505.00;;;;4973973;28;20197;-76
2023/01/21 02:11:58;;;;;;;0.10;0.10;;;0.40;99.90;12.80;163505.00;;;;4990497;28;20196;-77
2023/01/21 02:14:26;;;;;;;0.10;0.10;;;0.30;99.90;12.80;163505.00;;;;4976882;28;20579;-77
2023/01/21 02:17:17;;;;;;;0.10;0.10;;;0.20;99.90;12.80;163505.00;;;;4966681;28;20213;-77
2023/01/21 02:20:32;;;;;;;0.10;0.10;;;0.20;99.90;12.80;163505.00;;;;4982538;28;20213;-76
2023/01/21 02:23:08;;;;;;;0.20;0.20;;;0.10;99.90;12.80;163505.00;;;;4955123;29;20238;-77
2023/01/21 02:26:30;;;;;;;0.10;0.10;;;0.10;99.90;12.80;163505.00;;;;4970993;28;20200;-77
2023/01/21 02:29:39;;;;;;;0.15;0.15;;;0.20;99.90;12.80;163505.00;;;;4954716;29;20246;-77
2023/01/21 02:32:39;;;;;;;0.20;0.20;;;0.20;99.90;12.80;163505.00;;;;4984844;28;20223;-77
2023/01/21 02:35:18;;;;;;;0.20;0.20;;;0.10;99.90;12.80;163505.00;;;;4965087;28;20220;-77
2023/01/21 02:37:54;;;;;;;0.20;0.20;;;0.10;99.90;12.80;163505.00;;;;4985445;28;20221;-77
2023/01/21 02:40:32;;;;;;;0.20;0.20;;;0.00;99.90;12.80;163505.00;;;;4983685;28;20248;-77
2023/01/21 02:43:09;;;;;;;0.10;0.10;;;0.00;99.90;12.80;163505.00;;;;4975381;28;20192;-77
2023/01/21 02:45:46;;;;;;;0.10;0.10;;;0.00;99.90;12.80;163505.00;;;;4974372;28;20814;-77
2023/01/21 02:48:20;;;;;;;0.10;0.10;;;0.00;99.90;12.80;163505.00;;;;4982476;28;20200;-77
2023/01/21 02:50:52;;;;;;;0.10;0.10;;;0.00;99.90;12.80;163505.00;;;;4986482;28;20208;-76
2023/01/21 02:53:26;;;;;;;0.10;0.10;;;0.00;99.90;12.80;163505.00;;;;4976135;28;20744;-76
2023/01/21 02:55:55;;;;;;;0.17;0.17;;;0.00;99.90;12.80;163505.00;;;;4974168;28;20196;-77
2023/01/21 02:58:30;;;;;;;0.20;0.20;;;-0.10;99.90;12.80;163505.00;;;;4981732;28;20212;-77
2023/01/21 03:01:13;;;;;;;0.17;0.17;;;-0.10;99.90;12.80;163505.00;;;;4974156;28;20205;-77
2023/01/21 03:04:04;;;;;;;0.20;0.20;;;-0.10;99.90;12.80;163505.00;;;;4973275;28;20232;-77
2023/01/21 03:06:59;;;;;;;0.20;0.20;;;-0.10;99.90;12.80;163505.00;;;;4975384;28;20213;-76
2023/01/21 03:09:30;;;;;;;0.10;0.10;;;-0.10;99.90;12.80;163505.00;;;;4967245;28;21406;-76
2023/01/21 03:12:17;;;;;;;0.20;0.20;;;-0.10;99.90;12.80;163505.00;;;;4986668;28;20212;-76
2023/01/21 03:17:53;;;;;;;0.10;0.10;;;-0.10;99.90;12.80;163505.00;;;;4987790;28;20578;-77
2023/01/21 03:20:28;;;;;;;0.10;0.10;;;-0.10;99.90;12.80;163505.00;;;;4987186;28;20222;-77
2023/01/21 03:23:03;;;;;;;0.10;0.10;;;-0.10;99.90;12.80;163505.00;;;;4974806;28;20208;-77
2023/01/21 03:25:34;;;;;;;0.17;0.17;;;-0.20;99.90;12.80;163505.00;;;;4973709;28;20204;-76
2023/01/21 03:28:08;;;;;;;0.20;0.20;;;-0.20;99.90;12.80;163505.00;;;;4983679;28;20205;-77
2023/01/21 03:30:41;;;;;;;0.20;0.20;;;-0.20;99.90;12.80;163505.00;;;;4977621;28;20216;-77
2023/01/21 03:33:12;;;;;;;0.10;0.10;;;-0.30;99.90;12.80;163505.00;;;;4977246;28;20197;-77
2023/01/21 03:35:45;;;;;;;0.20;0.20;;;-0.20;99.90;12.80;163505.00;;;;4978457;28;20205;-77
2023/01/21 03:38:22;;;;;;;0.20;0.20;;;-0.30;99.90;12.80;163505.00;;;;4973491;28;20201;-77
2023/01/21 03:40:56;;;;;;;0.20;0.20;;;-0.30;99.90;12.80;163505.00;;;;4961668;28;20208;-78
2023/01/21 03:43:25;;;;;;;0.20;0.20;;;-0.30;99.90;12.80;163505.00;;;;4975140;28;20188;-78
2023/01/21 03:46:02;;;;;;;0.17;0.17;;;-0.30;99.90;12.80;163505.00;;;;4971037;28;20756;-77
2023/01/21 03:48:42;;;;;;;0.20;0.20;;;-0.30;99.90;12.80;163505.00;;;;4979044;28;20616;-78
2023/01/21 03:51:16;;;;;;;0.20;0.20;;;-0.30;99.90;12.80;163505.00;;;;4980177;28;20259;-78
2023/01/21 03:53:51;;;;;;;0.20;0.20;;;-0.30;99.90;12.80;163505.00;;;;4959135;28;20198;-78
2023/01/21 03:56:18;;;;;;;0.20;0.20;;;-0.30;99.90;12.80;163505.00;;;;4974825;28;20279;-77
2023/01/21 03:58:47;;;;;;;0.10;0.10;;;-0.20;99.90;12.80;163505.00;;;;4974933;28;20200;-78
2023/01/21 04:01:14;;;;;;;0.20;0.20;;;-0.30;99.90;12.80;163505.00;;;;4977130;28;20224;-78
2023/01/21 04:03:43;;;;;;;0.20;0.20;;;-0.20;99.90;12.80;163505.00;;;;4994517;28;20209;-78
2023/01/21 04:06:14;;;;;;;0.20;0.20;;;-0.20;99.90;12.80;163505.00;;;;4990830;28;20264;-77
2023/01/21 04:08:42;;;;;;;0.10;0.10;;;-0.30;99.90;12.80;163505.00;;;;4990219;28;20192;-77
2023/01/21 04:11:11;;;;;;;0.20;0.20;;;-0.30;99.90;12.80;163505.00;;;;4983134;28;20263;-77
2023/01/21 04:13:39;;;;;;;0.15;0.15;;;-0.30;99.90;12.80;163505.00;;;;4983281;28;20197;-77
2023/01/21 04:16:08;;;;;;;0.20;0.20;;;-0.30;99.90;12.80;163505.00;;;;4970614;28;20224;-77
2023/01/21 04:18:36;;;;;;;0.20;0.20;;;-0.40;99.90;12.80;163505.00;;;;4978697;28;20276;-78
2023/01/21 04:21:04;;;;;;;0.17;0.17;;;-0.30;99.90;12.80;163505.00;;;;4988704;28;20308;-77
2023/01/21 04:23:32;;;;;;;0.10;0.10;;;-0.30;99.90;12.80;163505.00;;;;4984859;28;20229;-78
2023/01/21 04:26:00;;;;;;;0.20;0.20;;;-0.30;99.90;12.80;163505.00;;;;4988343;28;20192;-76
2023/01/21 04:28:30;;;;;;;0.20;0.20;;;-0.40;99.90;12.80;163505.00;;;;4978059;28;20212;-77
2023/01/21 04:30:57;;;;;;;0.20;0.20;;;-0.40;99.90;12.80;163505.00;;;;4976845;28;20208;-75
2023/01/21 04:33:26;;;;;;;0.20;0.20;;;-0.40;99.90;12.80;163505.00;;;;4984292;28;20200;-78
2023/01/21 04:35:57;;;;;;;0.20;0.20;;;-0.40;99.90;12.80;163505.00;;;;4992524;28;20200;-76
2023/01/21 04:38:25;;;;;;;0.20;0.20;;;-0.40;99.90;12.80;163505.00;;;;4987780;28;20216;-77
2023/01/21 04:40:53;;;;;;;0.20;0.20;;;-0.40;99.90;12.80;163505.00;;;;4978625;28;20652;-77
2023/01/21 04:43:21;;;;;;;0.10;0.10;;;-0.40;99.90;12.80;163505.00;;;;4982156;28;20208;-77
2023/01/21 04:45:51;;;;;;;0.10;0.10;;;-0.40;99.90;12.80;163505.00;;;;4982398;28;20203;-76
2023/01/21 04:48:19;;;;;;;0.20;0.20;;;-0.40;99.90;12.80;163505.00;;;;4977159;28;20207;-75
2023/01/21 04:50:49;;;;;;;0.20;0.20;;;-0.40;99.90;12.80;163505.00;;;;4987938;28;20200;-76
2023/01/21 04:53:17;;;;;;;0.20;0.20;;;-0.40;99.90;12.80;163505.00;;;;4998210;28;20184;-76
2023/01/21 04:55:45;;;;;;;0.20;0.20;;;-0.40;99.90;12.80;163505.00;;;;4995604;28;20641;-76
2023/01/21 04:58:13;;;;;;;0.20;0.20;;;-0.40;99.90;12.80;163505.00;;;;5018062;23;20232;-71
2023/01/21 05:00:41;;;;;;;0.20;0.20;;;-0.40;99.90;12.80;163505.00;;;;4994206;28;20567;-71
2023/01/21 05:03:10;;;;;;;0.20;0.20;;;-0.50;99.90;12.80;163505.00;;;;4977227;28;20200;-71
2023/01/21 05:05:38;;;;;;;0.20;0.20;;;-0.50;99.90;12.80;163505.00;;;;4994702;28;20286;-73
2023/01/21 05:08:06;;;;;;;0.20;0.20;;;-0.60;99.90;12.80;163505.00;;;;5011389;28;20220;-71
2023/01/21 05:10:34;;;;;;;0.20;0.20;;;-0.60;99.90;12.80;163505.00;;;;4991862;28;20207;-72
2023/01/21 05:13:02;;;;;;;0.20;0.20;;;-0.70;99.90;12.80;163505.00;;;;4995303;28;20553;-72
2023/01/21 05:15:31;;;;;;;0.20;0.20;;;-0.70;99.90;12.80;163505.00;;;;5012630;28;20211;-72
2023/01/21 05:17:59;;;;;;;0.13;0.13;;;-0.60;99.90;12.80;163505.00;;;;5012191;28;20586;-72
2023/01/21 05:20:28;;;;;;;0.20;0.20;;;-0.70;99.90;12.80;163505.00;;;;5017412;28;20203;-72
2023/01/21 05:22:57;;;;;;;0.20;0.20;;;-0.70;99.90;12.80;163505.00;;;;4998650;28;20219;-72
2023/01/21 05:25:25;;;;;;;0.20;0.20;;;-0.60;99.90;12.80;163505.00;;;;5011290;28;20860;-72
2023/01/21 05:27:54;;;;;;;0.20;0.20;;;-0.70;99.90;12.80;163505.00;;;;5013650;28;20212;-72
2023/01/21 05:30:23;;;;;;;0.20;0.20;;;-0.70;99.90;12.80;163505.00;;;;5012552;28;20247;-71
2023/01/21 05:32:51;;;;;;;0.20;0.20;;;-0.70;99.90;12.80;163505.00;;;;5013197;28;20234;-72
2023/01/21 05:35:20;;;;;;;0.20;0.20;;;-0.80;99.90;12.80;163505.00;;;;5013006;28;20195;-71
2023/01/21 05:37:50;;;;;;;0.20;0.20;;;-0.80;99.90;12.80;163505.00;;;;5012146;28;20215;-72
2023/01/21 05:40:19;;;;;;;0.20;0.20;;;-0.80;99.90;12.80;163505.00;;;;5011993;28;20231;-71
2023/01/21 05:42:47;;;;;;;0.20;0.20;;;-0.80;99.90;12.80;163505.00;;;;5010768;28;20234;-71
2023/01/21 05:45:15;;;;;;;0.10;0.10;;;-0.80;99.90;12.80;163505.00;;;;5018051;28;20199;-72
2023/01/21 05:47:43;;;;;;;0.20;0.20;;;-0.80;99.90;12.80;163505.00;;;;5013154;28;20246;-72
2023/01/21 05:50:12;;;;;;;0.20;0.20;;;-0.80;99.90;12.80;163505.00;;;;5012809;28;20211;-72
2023/01/21 05:52:40;;;;;;;0.20;0.20;;;-0.80;99.90;12.80;163505.00;;;;5011788;28;20330;-72
2023/01/21 05:55:10;;;;;;;0.20;0.20;;;-0.80;99.90;12.80;163505.00;;;;5012083;28;21000;-72
2023/01/21 05:57:38;;;;;;;0.20;0.20;;;-0.80;99.90;12.80;163505.00;;;;5012319;28;20223;-72
2023/01/21 06:00:08;;;;;;;0.20;0.20;;;-0.80;99.90;12.80;163505.00;;;;5011910;28;20196;-72
2023/01/21 06:02:36;;;;;;;0.30;0.30;;;-0.90;99.90;12.80;163505.00;;;;5012378;28;20228;-72
2023/01/21 06:05:05;;;;;;;0.20;0.20;;;-0.90;99.90;12.80;163505.00;;;;5012834;28;20495;-72
2023/01/21 06:07:33;;;;;;;0.20;0.20;;;-0.90;99.90;12.80;163505.00;;;;5011875;28;20747;-72
2023/01/21 06:10:01;;;;;;;0.20;0.20;;;-0.90;99.90;12.80;163505.00;;;;5012114;28;20218;-70
2023/01/21 06:12:30;;;;;;;0.20;0.20;;;-0.80;99.90;12.80;163505.00;;;;5011897;28;20199;-72
2023/01/21 06:14:59;;;;;;;0.10;0.10;;;-0.80;99.90;12.80;163505.00;;;;5012070;28;20234;-73
2023/01/21 06:17:27;;;;;;;0.20;0.20;;;-0.80;99.90;12.80;163505.00;;;;5011905;28;20261;-73
2023/01/21 06:19:55;;;;;;;0.20;0.20;;;-0.80;99.90;12.80;163505.00;;;;5012055;28;20258;-73
2023/01/21 06:22:23;;;;;;;0.13;0.13;;;-0.80;99.90;12.80;163505.00;;;;5011636;28;20216;-74
2023/01/21 06:24:51;;;;;;;0.20;0.20;;;-0.90;99.90;12.80;163505.00;;;;5012508;28;20228;-74
2023/01/21 06:27:18;;;;;;;0.20;0.20;;;-0.80;99.90;12.80;163505.00;;;;5011540;28;20278;-73
2023/01/21 06:29:48;;;;;;;0.20;0.20;;;-0.90;99.90;12.80;163505.00;;;;5007601;28;20192;-73
2023/01/21 06:32:16;;;;;;;0.20;0.20;;;-0.80;99.90;12.80;163505.00;;;;5007585;28;20581;-72
2023/01/21 06:34:44;;;;;;;0.20;0.20;;;-0.80;99.90;12.80;163505.00;;;;5012398;28;20196;-73
2023/01/21 06:37:13;;;;;;;0.20;0.20;;;-0.80;99.90;12.80;163505.00;;;;5011330;28;20677;-73
2023/01/21 06:39:41;;;;;;;0.10;0.10;;;-0.80;99.90;12.80;163505.00;;;;5011647;28;20551;-73
2023/01/21 06:42:09;;;;;;;0.20;0.20;;;-0.90;99.90;12.80;163505.00;;;;5011395;28;20226;-73
2023/01/21 06:44:37;;;;;;;0.20;0.20;;;-0.90;99.90;12.80;163505.00;;;;5012268;28;20283;-73
2023/01/21 06:47:06;;;;;;;0.20;0.20;;;-0.90;99.90;12.80;163505.00;;;;5012201;28;20624;-73
2023/01/21 06:49:34;;;;;;;0.17;0.17;;;-0.90;99.90;12.80;163505.00;;;;5012107;28;20222;-73
2023/01/21 06:52:02;;;;;;;0.20;0.20;;;-0.90;99.90;12.80;163505.00;;;;5014229;28;20195;-72
2023/01/21 06:54:30;;;;;;;0.20;0.20;;;-0.90;99.90;12.80;163505.00;;;;5012961;28;20204;-72
2023/01/21 06:56:58;;;;;;;0.20;0.20;;;-0.90;99.90;12.80;163505.00;;;;5012740;28;20342;-73
2023/01/21 06:59:26;;;;;;;0.20;0.20;;;-0.90;99.90;12.80;163505.00;;;;5013688;28;20208;-73
2023/01/21 07:01:57;;;;;;;0.20;0.20;;;-0.90;99.90;12.80;163505.00;;;;5011892;28;20200;-71
2023/01/21 07:04:27;;;;;;;0.20;0.20;;;-0.90;99.90;12.80;163505.00;;;;5013260;28;20234;-71
2023/01/21 07:06:56;;;;;;;0.20;0.20;;;-0.90;99.90;12.80;163505.00;;;;5010610;28;20587;-71
2023/01/21 07:09:23;;;;;;;0.20;0.20;;;-1.00;99.90;12.80;163505.00;;;;5013981;28;20203;-74
2023/01/21 07:11:51;;;;;;;0.20;0.20;;;-0.90;99.90;12.80;163505.00;;;;5017164;28;20218;-74
2023/01/21 07:14:19;;;;;;;0.20;0.20;;;-0.90;99.90;12.80;163505.00;;;;4994498;28;20199;-72
2023/01/21 07:16:47;;;;;;;0.10;0.10;;;-0.90;99.90;12.80;163505.00;;;;5022519;28;20219;-71
2023/01/21 07:19:15;;;;;;;0.20;0.20;;;-0.80;99.90;12.80;163505.00;;;;5010112;28;20283;-72
2023/01/21 07:21:45;;;;;;;0.20;0.20;;;-0.80;99.90;12.80;163505.00;;;;5010755;28;20199;-72
2023/01/21 07:24:13;;;;;;;0.20;0.20;;;-0.80;99.90;12.80;163505.00;;;;5010233;28;20224;-74
2023/01/21 07:26:42;;;;;;;0.20;0.20;;;-0.80;99.90;12.80;163505.00;;;;5010718;28;20216;-73
2023/01/21 07:29:10;;;;;;;0.10;0.10;;;-0.80;99.90;12.80;163505.00;;;;5007450;28;20243;-71
2023/01/21 07:31:38;;;;;;;0.20;0.20;;;-0.80;99.90;12.80;163505.00;;;;5011698;28;20207;-72
2023/01/21 07:34:06;;;;;;;0.20;0.20;;;-0.80;99.90;12.80;163505.00;;;;4992073;28;20195;-71
2023/01/21 07:36:34;;;;;;;0.10;0.10;;;-0.90;99.90;12.80;163505.00;;;;5011459;28;20220;-69
2023/01/21 07:39:03;;;;;;;0.20;0.20;;;-0.80;99.90;12.80;163505.00;;;;5010443;28;20258;-71
2023/01/21 07:41:31;;;;;;;0.20;0.20;;;-0.80;99.90;12.80;163505.00;;;;5005049;28;20258;-71
2023/01/21 07:43:59;;;;;;;0.20;0.20;;;-0.80;99.90;12.80;163505.00;;;;5009349;28;20572;-72
2023/01/21 07:46:28;;;;;;;0.20;0.20;;;-0.80;99.90;12.80;163505.00;;;;5008313;28;20223;-71
2023/01/21 07:48:56;;;;;;;0.17;0.17;;;-0.80;99.90;12.80;163505.00;;;;5003249;28;20220;-71
2023/01/21 07:51:24;;;;;;;0.20;0.20;;;-0.80;99.90;12.80;163505.00;;;;4995434;28;20208;-70
2023/01/21 07:53:55;;;;;;;0.20;0.20;;;-0.90;99.90;12.80;163505.00;;;;5014980;28;20718;-71
2023/01/21 07:56:25;;;;;;;0.20;0.20;;;-0.80;99.90;12.80;163505.00;;;;5016117;28;20216;-71
2023/01/21 07:58:53;;;;;;;0.20;0.20;;;-0.80;99.90;12.80;163505.00;;;;5016541;28;20668;-70
2023/01/21 08:01:25;;;;;;;0.20;0.20;;;-0.80;99.90;12.80;163505.00;;;;5014772;28;20205;-71
2023/01/21 08:03:53;;;;;;;0.20;0.20;;;-0.80;99.90;12.80;163505.00;;;;5016914;28;20727;-71
2023/01/21 08:06:21;;;;;;;0.20;0.20;;;-0.70;99.90;12.80;163505.00;;;;5016526;28;22233;-70
2023/01/21 08:08:49;;;;;;;0.20;0.20;;;-0.70;99.90;12.80;163505.00;;;;5017505;28;20591;-71
2023/01/21 08:11:17;;;;;;;0.20;0.20;;;-0.70;99.90;12.80;163505.00;;;;5017013;28;20207;-71
2023/01/21 08:13:49;;;;;;;0.17;0.17;;;-0.70;99.90;12.80;163505.00;;;;5011663;28;20191;-70
2023/01/21 08:16:17;;;;;;;0.20;0.20;;;-0.70;99.90;12.80;163505.00;;;;5013601;28;20747;-69
2023/01/21 08:18:45;;;;;;;0.10;0.10;;;-0.70;99.90;12.80;163505.00;;;;5018370;28;20226;-71
2023/01/21 08:21:13;;;;;;;0.13;0.13;;;-0.70;99.90;12.80;163505.00;;;;5017939;28;20669;-71
2023/01/21 08:23:41;;;;;;;0.10;0.10;;;-0.60;99.90;12.80;163505.00;;;;5017006;28;20215;-71
2023/01/21 08:26:09;;;;;;;0.20;0.20;;;-0.50;99.90;12.80;163505.00;;;;5015178;28;20210;-71
2023/01/21 08:28:37;;;;;;;0.20;0.20;;;-0.60;99.90;12.80;163505.00;;;;5017227;28;20211;-70
2023/01/21 08:31:09;;;;;;;0.10;0.10;;;-0.60;99.90;12.80;163505.00;;;;5017578;28;20200;-71
2023/01/21 08:33:38;;;;;;;0.20;0.20;;;-0.60;99.90;12.80;163505.00;;;;5017648;28;20206;-71
2023/01/21 08:36:09;;;;;;;0.20;0.20;;;-0.70;99.90;12.80;163505.00;;;;5010567;28;20562;-71
2023/01/21 08:38:38;;;;;;;0.20;0.20;;;-0.70;99.90;12.80;163505.00;;;;5009786;28;20607;-71
2023/01/21 08:41:06;;;;;;;0.10;0.10;;;-0.60;99.90;12.80;163505.00;;;;5013930;28;20224;-71
2023/01/21 08:43:34;;;;;;;0.13;0.13;;;-0.70;99.90;12.80;163505.00;;;;5012519;28;20231;-71
2023/01/21 08:46:02;;;;;;;0.20;0.20;;;-0.60;99.90;12.80;163505.00;;;;4995599;28;20224;-71
2023/01/21 08:48:32;;;;;;;0.20;0.20;;;-0.60;99.90;12.80;163505.00;;;;5006870;28;20192;-71
2023/01/21 08:51:00;;;;;;;0.20;0.20;;;-0.60;99.90;12.80;163505.00;;;;5016831;28;20200;-71
2023/01/21 08:53:28;;;;;;;0.20;0.20;;;-0.60;99.90;12.80;163505.00;;;;5014752;28;20211;-71
2023/01/21 08:56:00;;;;;;;0.20;0.20;;;-0.60;99.90;12.80;163505.00;;;;4998171;28;20203;-71
2023/01/21 08:58:29;;;;;;;0.20;0.20;;;-0.60;99.90;12.80;163505.00;;;;5015484;28;20203;-71
2023/01/21 09:00:58;;;;;;;0.20;0.20;;;-0.50;99.90;12.80;163505.00;;;;5016725;28;20254;-71
2023/01/21 09:03:26;;;;;;;0.10;0.10;;;-0.50;99.90;12.80;163505.00;;;;5018090;28;20230;-71
2023/01/21 09:06:00;;;;;;;0.20;0.20;;;-0.50;99.90;12.80;163505.00;;;;5011196;28;20742;-71
2023/01/21 09:08:27;;;;;;;0.20;0.20;;;-0.60;99.90;12.80;163505.00;;;;5013409;28;20594;-71
2023/01/21 09:11:01;;;;;;;0.10;0.10;;;-0.50;99.90;12.80;163505.00;;;;5012563;28;20191;-71
2023/01/21 09:13:30;;;;;;;0.20;0.20;;;-0.50;99.90;12.80;163505.00;;;;5015940;28;20704;-71
2023/01/21 09:15:58;;;;;;;0.20;0.20;;;-0.50;99.90;12.80;163505.00;;;;5014619;28;20207;-71
2023/01/21 09:18:26;;;;;;;0.17;0.17;;;-0.50;99.90;12.80;163505.00;;;;5018653;28;20219;-71
2023/01/21 09:21:01;;;;;;;0.20;0.20;;;-0.40;99.90;12.80;163505.00;;;;5016258;28;20696;-70
2023/01/21 09:23:32;;;;;;;0.10;0.10;;;-0.40;99.90;12.80;163505.00;;;;5013875;28;20218;-70
2023/01/21 09:26:04;;;;;;;0.10;0.10;;;-0.50;99.90;12.80;163505.00;;;;5012112;28;20279;-70
2023/01/21 09:28:34;;;;;;;0.10;0.10;;;-0.40;99.90;12.80;163505.00;;;;5014968;28;20211;-70
2023/01/21 09:31:05;;;;;;;0.20;0.20;;;-0.40;99.90;12.80;163505.00;;;;5010759;28;20246;-70
2023/01/21 09:33:36;;;;;;;0.20;0.20;;;-0.40;99.90;12.80;163505.00;;;;5031239;28;20676;-72
2023/01/21 09:36:08;;;;;;;0.20;0.20;;;-0.30;99.90;12.80;163505.00;;;;5013498;28;20931;-71
2023/01/21 09:38:36;;;;;;;0.10;0.10;;;-0.30;99.90;12.80;163505.00;;;;5011751;28;20242;-70
2023/01/21 09:41:21;;;;;;;0.20;0.20;;;-0.30;99.90;12.80;163505.00;;;;4988278;28;20261;-70
2023/01/21 09:43:58;;;;;;;0.10;0.10;;;-0.30;99.90;12.80;163505.00;;;;4999948;28;20596;-70
2023/01/21 09:46:38;;;;;;;0.10;0.10;;;-0.30;99.90;12.80;163505.00;;;;5006237;28;20218;-69
2023/01/21 09:49:16;;;;;;;0.10;0.10;;;-0.20;99.90;12.80;163505.00;;;;4996840;28;20231;-70
2023/01/21 09:51:55;;;;;;;0.20;0.20;;;-0.20;99.90;12.80;163505.00;;;;5011520;28;20202;-70
2023/01/21 09:54:27;;;;;;;0.20;0.20;;;-0.20;99.90;12.80;163505.00;;;;5012196;28;20203;-70
2023/01/21 09:57:22;;;;;;;0.20;0.20;;;-0.20;99.90;12.80;163505.00;;;;5013360;28;20793;-70
2023/01/21 10:00:08;;;;;;;0.20;0.20;;;-0.20;99.90;12.80;163505.00;;;;5014986;28;20637;-70
2023/01/21 10:02:50;;;;;;;0.20;0.20;;;-0.20;99.90;12.80;163505.00;;;;5012349;28;20192;-70
2023/01/21 10:05:50;;;;;;;0.13;0.13;;;-0.20;99.90;12.80;163505.00;;;;5005278;28;20223;-70
2023/01/21 10:08:31;;;;;;;0.20;0.20;;;-0.20;99.90;12.80;163505.00;;;;5003968;28;20212;-70
2023/01/21 10:11:19;;;;;;;0.20;0.20;;;-0.20;99.90;12.80;163505.00;;;;5005357;28;20199;-69
2023/01/21 10:14:13;;;;;;;0.20;0.20;;;-0.20;99.90;12.80;163505.00;;;;5001891;28;20676;-70
2023/01/21 10:16:51;;;;;;;0.20;0.20;;;-0.20;99.90;12.80;163505.00;;;;5007251;28;20238;-70
2023/01/21 10:19:28;;;;;;;0.20;0.20;;;-0.20;99.90;12.80;163505.00;;;;5005650;28;20242;-70
2023/01/21 10:22:04;;;;;;;0.20;0.20;;;-0.20;99.90;12.80;163505.00;;;;5011084;28;20243;-69
2023/01/21 10:24:40;;;;;;;0.13;0.13;;;-0.20;99.90;12.80;163505.00;;;;5011980;28;20246;-71
2023/01/21 10:27:16;;;;;;;0.20;0.20;;;-0.30;99.90;12.80;163505.00;;;;5014257;28;20227;-70
2023/01/21 10:29:44;;;;;;;0.20;0.20;;;-0.30;99.90;12.80;163505.00;;;;5012849;28;20211;-72
2023/01/21 10:32:21;;;;;;;0.15;0.15;;;-0.30;99.90;12.80;163505.00;;;;5008417;28;20192;-72
2023/01/21 10:34:53;;;;;;;0.20;0.20;;;-0.30;99.90;12.80;163505.00;;;;5005934;28;20257;-69
2023/01/21 10:37:32;;;;;;;0.20;0.20;;;-0.20;99.90;12.80;163505.00;;;;5012402;28;20282;-72
2023/01/21 10:40:16;;;;;;;0.10;0.10;;;-0.20;99.90;12.80;163505.00;;;;5006286;28;20212;-69
2023/01/21 10:42:58;;;;;;;0.10;0.10;;;-0.20;99.90;12.80;163505.00;;;;5011061;28;20191;-70
2023/01/21 10:45:39;;;;;;;0.20;0.20;;;-0.30;99.90;12.80;163505.00;;;;5011250;28;20274;-69
2023/01/21 10:48:17;;;;;;;0.10;0.10;;;-0.30;99.90;12.80;163505.00;;;;4991322;28;20227;-69
2023/01/21 10:50:54;;;;;;;0.17;0.17;;;-0.30;99.90;12.80;163505.00;;;;5006979;28;20191;-70
2023/01/21 10:53:33;;;;;;;0.20;0.20;;;-0.30;99.90;12.80;163505.00;;;;5014298;28;20209;-71
2023/01/21 10:56:17;;;;;;;0.20;0.20;;;-0.30;99.90;12.80;163505.00;;;;5011568;28;20269;-70
2023/01/21 10:58:50;;;;;;;0.13;0.13;;;-0.30;99.90;12.80;163505.00;;;;5005385;23;20240;-74
2023/01/21 11:01:27;;;;;;;0.20;0.20;;;-0.30;99.90;12.80;163505.00;;;;4989530;28;20264;-74
2023/01/21 11:03:59;;;;;;;0.20;0.20;;;-0.30;99.90;12.80;163505.00;;;;4986314;28;20275;-74
2023/01/21 11:06:32;;;;;;;0.20;0.20;;;-0.30;99.90;12.80;163505.00;;;;4991732;28;20200;-74
2023/01/21 11:09:04;;;;;;;0.20;0.20;;;-0.30;99.90;12.80;163505.00;;;;4973597;28;20208;-74
2023/01/21 11:11:36;;;;;;;0.20;0.20;;;-0.30;99.90;12.80;163505.00;;;;4972768;28;20721;-74